sensor_id;sensor_type;location;lat;lon;timestamp;pressure;altitude;pressure_sealevel;temperature;humidity
21821;BME280;11073;48.586;12.066;2022-12-20T00:01:56;97194.06;;;-0.06;70.83
21821;BME280;11073;48.586;12.066;2022-12-20T00:04:27;97179.31;;;-0.18;70.96
21821;BME280;11073;48.586;12.066;2022-12-20T00:06:56;97192.94;;;-0.21;70.88
21821;BME280;11073;48.586;12.066;2022-12-20T00:09:25;97202.13;;;-0.16;71.24
21821;BME280;11073;48.586;12.066;2022-12-20T00:11:53;97201.97;;;-0.14;71.11
21821;BME280;11073;48.586;12.066;2022-12-20T00:14:22;97209.09;;;-0.15;71.11
21821;BME280;11073;48.586;12.066;2022-12-20T00:16:50;97194.84;;;-0.14;71.07
21821;BME280;11073;48.586;12.066;2022-12-20T00:19:19;97205.31;;;-0.12;71.16
21821;BME280;11073;48.586;12.066;2022-12-20T00:21:49;97213.59;;;-0.15;71.08
21821;BME280;11073;48.586;12.066;2022-12-20T00:24:18;97213.00;;;-0.09;71.26
21821;BME280;11073;48.586;12.066;2022-12-20T00:26:53;97208.97;;;-0.13;71.23
21821;BME280;11073;48.586;12.066;2022-12-20T00:29:22;97200.84;;;-0.12;71.14
21821;BME280;11073;48.586;12.066;2022-12-20T00:31:50;97201.81;;;-0.13;71.08
21821;BME280;11073;48.586;12.066;2022-12-20T00:34:19;97193.13;;;-0.15;71.22
21821;BME280;11073;48.586;12.066;2022-12-20T00:36:49;97177.25;;;-0.24;71.20
21821;BME280;11073;48.586;12.066;2022-12-20T00:39:18;97185.25;;;-0.24;71.23
21821;BME280;11073;48.586;12.066;2022-12-20T00:41:46;97180.25;;;-0.28;71.22
21821;BME280;11073;48.586;12.066;2022-12-20T00:44:16;97182.50;;;-0.33;71.15
21821;BME280;11073;48.586;12.066;2022-12-20T00:46:45;97178.34;;;-0.35;71.38
21821;BME280;11073;48.586;12.066;2022-12-20T00:49:13;97175.38;;;-0.32;71.38
21821;BME280;11073;48.586;12.066;2022-12-20T00:51:43;97160.84;;;-0.38;71.38
21821;BME280;11073;48.586;12.066;2022-12-20T00:54:13;97164.72;;;-0.32;71.33
21821;BME280;11073;48.586;12.066;2022-12-20T00:56:42;97168.06;;;-0.30;71.43
21821;BME280;11073;48.586;12.066;2022-12-20T00:59:10;97163.38;;;-0.36;71.33
21821;BME280;11073;48.586;12.066;2022-12-20T01:01:39;97165.81;;;-0.43;71.30
21821;BME280;11073;48.586;12.066;2022-12-20T01:04:08;97172.78;;;-0.42;71.37
21821;BME280;11073;48.586;12.066;2022-12-20T01:06:37;97156.06;;;-0.52;71.23
21821;BME280;11073;48.586;12.066;2022-12-20T01:09:05;97174.63;;;-0.42;71.36
21821;BME280;11073;48.586;12.066;2022-12-20T01:11:37;97178.34;;;-0.35;71.39
21821;BME280;11073;48.586;12.066;2022-12-20T01:14:09;97169.59;;;-0.28;71.41
21821;BME280;11073;48.586;12.066;2022-12-20T01:16:40;97170.09;;;-0.24;71.55
21821;BME280;11073;48.586;12.066;2022-12-20T01:19:11;97179.25;;;-0.26;71.16
21821;BME280;11073;48.586;12.066;2022-12-20T01:21:41;97174.09;;;-0.28;71.25
21821;BME280;11073;48.586;12.066;2022-12-20T01:24:12;97168.69;;;-0.36;71.22
21821;BME280;11073;48.586;12.066;2022-12-20T01:26:42;97177.19;;;-0.33;71.29
21821;BME280;11073;48.586;12.066;2022-12-20T01:29:13;97170.03;;;-0.32;71.21
21821;BME280;11073;48.586;12.066;2022-12-20T01:31:42;97161.53;;;-0.36;71.11
21821;BME280;11073;48.586;12.066;2022-12-20T01:34:11;97151.50;;;-0.42;71.19
21821;BME280;11073;48.586;12.066;2022-12-20T01:36:40;97174.09;;;-0.28;71.10
21821;BME280;11073;48.586;12.066;2022-12-20T01:39:11;97159.00;;;-0.37;71.07
21821;BME280;11073;48.586;12.066;2022-12-20T01:41:43;97174.69;;;-0.34;71.17
21821;BME280;11073;48.586;12.066;2022-12-20T01:47:19;97173.44;;;-0.22;71.21
21821;BME280;11073;48.586;12.066;2022-12-20T01:49:50;97174.00;;;-0.18;71.18
21821;BME280;11073;48.586;12.066;2022-12-20T01:52:28;97175.38;;;-0.14;71.11
21821;BME280;11073;48.586;12.066;2022-12-20T01:55:04;97165.38;;;-0.12;70.97
21821;BME280;11073;48.586;12.066;2022-12-20T01:57:41;97171.00;;;-0.15;71.05
21821;BME280;11073;48.586;12.066;2022-12-20T02:00:11;97162.72;;;-0.12;71.01
21821;BME280;11073;48.586;12.066;2022-12-20T02:02:41;97159.22;;;-0.13;70.93
21821;BME280;11073;48.586;12.066;2022-12-20T02:05:11;97152.25;;;-0.14;70.96
21821;BME280;11073;48.586;12.066;2022-12-20T02:07:45;97160.06;;;-0.12;71.01
21821;BME280;11073;48.586;12.066;2022-12-20T02:10:17;97143.56;;;-0.16;71.00
21821;BME280;11073;48.586;12.066;2022-12-20T02:12:50;97152.25;;;-0.14;70.84
21821;BME280;11073;48.586;12.066;2022-12-20T02:15:32;97148.88;;;-0.16;70.77
21821;BME280;11073;48.586;12.066;2022-12-20T02:18:14;97133.16;;;-0.27;70.83
21821;BME280;11073;48.586;12.066;2022-12-20T02:21:13;97138.44;;;-0.35;71.01
21821;BME280;11073;48.586;12.066;2022-12-20T02:24:13;97139.84;;;-0.23;71.03
21821;BME280;11073;48.586;12.066;2022-12-20T02:27:14;97144.31;;;-0.23;70.98
21821;BME280;11073;48.586;12.066;2022-12-20T02:30:11;97167.16;;;-0.21;70.98
21821;BME280;11073;48.586;12.066;2022-12-20T02:32:48;97160.84;;;-0.20;71.07
21821;BME280;11073;48.586;12.066;2022-12-20T02:35:21;97166.16;;;-0.20;71.00
21821;BME280;11073;48.586;12.066;2022-12-20T02:37:52;97165.84;;;-0.17;71.01
21821;BME280;11073;48.586;12.066;2022-12-20T02:40:24;97150.34;;;-0.21;71.02
21821;BME280;11073;48.586;12.066;2022-12-20T02:42:56;97148.44;;;-0.29;70.92
21821;BME280;11073;48.586;12.066;2022-12-20T02:45:35;97140.31;;;-0.28;71.04
21821;BME280;11073;48.586;12.066;2022-12-20T02:48:07;97136.94;;;-0.30;71.02
21821;BME280;11073;48.586;12.066;2022-12-20T02:50:39;97129.75;;;-0.37;71.14
21821;BME280;11073;48.586;12.066;2022-12-20T02:53:12;97134.78;;;-0.34;70.98
21821;BME280;11073;48.586;12.066;2022-12-20T02:55:48;97134.78;;;-0.34;71.12
21821;BME280;11073;48.586;12.066;2022-12-20T02:58:24;97128.84;;;-0.28;71.04
21821;BME280;11073;48.586;12.066;2022-12-20T03:01:01;97125.84;;;-0.25;71.13
21821;BME280;11073;48.586;12.066;2022-12-20T03:03:32;97123.34;;;-0.26;71.28
21821;BME280;11073;48.586;12.066;2022-12-20T03:06:04;97130.19;;;-0.24;71.18
21821;BME280;11073;48.586;12.066;2022-12-20T03:08:36;97131.84;;;-0.23;71.27
21821;BME280;11073;48.586;12.066;2022-12-20T03:11:05;97132.00;;;-0.24;71.30
21821;BME280;11073;48.586;12.066;2022-12-20T03:13:34;97128.84;;;-0.28;71.20
21821;BME280;11073;48.586;12.066;2022-12-20T03:16:08;97135.00;;;-0.28;71.23
21821;BME280;11073;48.586;12.066;2022-12-20T03:18:38;97132.28;;;-0.36;71.24
21821;BME280;11073;48.586;12.066;2022-12-20T03:21:07;97113.97;;;-0.57;71.41
21821;BME280;11073;48.586;12.066;2022-12-20T03:23:35;97121.13;;;-0.57;71.35
21821;BME280;11073;48.586;12.066;2022-12-20T03:26:05;97120.28;;;-0.58;71.79
21821;BME280;11073;48.586;12.066;2022-12-20T03:28:39;97124.66;;;-0.48;71.85
21821;BME280;11073;48.586;12.066;2022-12-20T03:31:13;97119.41;;;-0.40;71.67
21821;BME280;11073;48.586;12.066;2022-12-20T03:33:47;97119.09;;;-0.37;71.72
21821;BME280;11073;48.586;12.066;2022-12-20T03:36:16;97116.16;;;-0.34;71.67
21821;BME280;11073;48.586;12.066;2022-12-20T03:38:54;97113.31;;;-0.33;71.92
21821;BME280;11073;48.586;12.066;2022-12-20T03:41:25;97096.69;;;-0.35;71.61
21821;BME280;11073;48.586;12.066;2022-12-20T03:43:54;97096.47;;;-0.41;71.75
21821;BME280;11073;48.586;12.066;2022-12-20T03:46:26;97097.06;;;-0.47;71.77
21821;BME280;11073;48.586;12.066;2022-12-20T03:48:55;97092.44;;;-0.45;71.85
21821;BME280;11073;48.586;12.066;2022-12-20T03:51:24;97096.16;;;-0.38;71.88
21821;BME280;11073;48.586;12.066;2022-12-20T03:53:53;97085.88;;;-0.33;72.03
21821;BME280;11073;48.586;12.066;2022-12-20T03:56:28;97078.72;;;-0.33;72.07
21821;BME280;11073;48.586;12.066;2022-12-20T03:58:57;97089.88;;;-0.29;72.00
21821;BME280;11073;48.586;12.066;2022-12-20T04:01:28;97085.72;;;-0.32;72.03
21821;BME280;11073;48.586;12.066;2022-12-20T04:03:57;97093.53;;;-0.30;71.98
21821;BME280;11073;48.586;12.066;2022-12-20T04:06:26;97091.38;;;-0.35;72.03
21821;BME280;11073;48.586;12.066;2022-12-20T04:08:55;97083.00;;;-0.40;72.08
21821;BME280;11073;48.586;12.066;2022-12-20T04:11:29;97079.19;;;-0.37;72.25
21821;BME280;11073;48.586;12.066;2022-12-20T04:14:15;97084.50;;;-0.37;72.07
21821;BME280;11073;48.586;12.066;2022-12-20T04:16:45;97085.81;;;-0.41;72.29
21821;BME280;11073;48.586;12.066;2022-12-20T04:19:15;97094.25;;;-0.28;72.37
21821;BME280;11073;48.586;12.066;2022-12-20T04:21:46;97105.63;;;-0.18;72.27
21821;BME280;11073;48.586;12.066;2022-12-20T04:24:17;97104.34;;;-0.14;72.21
21821;BME280;11073;48.586;12.066;2022-12-20T04:27:10;97086.31;;;-0.20;72.29
21821;BME280;11073;48.586;12.066;2022-12-20T04:29:39;97098.31;;;-0.16;71.98
21821;BME280;11073;48.586;12.066;2022-12-20T04:32:12;97101.44;;;-0.20;71.99
21821;BME280;11073;48.586;12.066;2022-12-20T04:34:41;97104.94;;;-0.20;72.09
21821;BME280;11073;48.586;12.066;2022-12-20T04:37:09;97101.75;;;-0.23;71.98
21821;BME280;11073;48.586;12.066;2022-12-20T04:39:53;97097.47;;;-0.16;72.12
21821;BME280;11073;48.586;12.066;2022-12-20T04:42:25;97090.44;;;-0.25;72.03
21821;BME280;11073;48.586;12.066;2022-12-20T04:44:55;97082.22;;;-0.32;72.17
21821;BME280;11073;48.586;12.066;2022-12-20T04:47:29;97093.66;;;-0.40;72.28
21821;BME280;11073;48.586;12.066;2022-12-20T04:49:58;97085.16;;;-0.43;72.22
21821;BME280;11073;48.586;12.066;2022-12-20T04:52:28;97079.59;;;-0.50;72.44
21821;BME280;11073;48.586;12.066;2022-12-20T04:55:19;97090.38;;;-0.51;72.13
21821;BME280;11073;48.586;12.066;2022-12-20T04:57:48;97093.03;;;-0.51;72.52
21821;BME280;11073;48.586;12.066;2022-12-20T05:00:18;97098.22;;;-0.50;72.47
21821;BME280;11073;48.586;12.066;2022-12-20T05:02:56;97100.06;;;-0.50;72.30
21821;BME280;11073;48.586;12.066;2022-12-20T05:05:25;97087.25;;;-0.47;72.30
21821;BME280;11073;48.586;12.066;2022-12-20T05:07:56;97080.72;;;-0.52;72.45
21821;BME280;11073;48.586;12.066;2022-12-20T05:10:27;97063.72;;;-0.60;72.61
21821;BME280;11073;48.586;12.066;2022-12-20T05:13:00;97066.69;;;-0.63;72.65
21821;BME280;11073;48.586;12.066;2022-12-20T05:15:39;97068.38;;;-0.62;72.98
21821;BME280;11073;48.586;12.066;2022-12-20T05:18:11;97060.75;;;-0.57;72.99
21821;BME280;11073;48.586;12.066;2022-12-20T05:20:49;97051.13;;;-0.58;72.96
21821;BME280;11073;48.586;12.066;2022-12-20T05:23:39;97046.31;;;-0.54;73.18
21821;BME280;11073;48.586;12.066;2022-12-20T05:26:29;97053.50;;;-0.46;73.10
21821;BME280;11073;48.586;12.066;2022-12-20T05:29:00;97054.06;;;-0.43;72.94
21821;BME280;11073;48.586;12.066;2022-12-20T05:31:29;97046.19;;;-0.44;73.12
21821;BME280;11073;48.586;12.066;2022-12-20T05:34:00;97043.50;;;-0.52;72.98
21821;BME280;11073;48.586;12.066;2022-12-20T05:36:32;97038.09;;;-0.61;72.95
21821;BME280;11073;48.586;12.066;2022-12-20T05:39:03;97028.31;;;-0.60;73.12
21821;BME280;11073;48.586;12.066;2022-12-20T05:41:36;97036.13;;;-0.59;73.12
21821;BME280;11073;48.586;12.066;2022-12-20T05:44:05;97041.53;;;-0.50;73.36
21821;BME280;11073;48.586;12.066;2022-12-20T05:46:37;97048.75;;;-0.43;73.21
21821;BME280;11073;48.586;12.066;2022-12-20T05:49:12;97043.91;;;-0.39;73.24
21821;BME280;11073;48.586;12.066;2022-12-20T05:51:41;97048.16;;;-0.29;73.08
21821;BME280;11073;48.586;12.066;2022-12-20T05:54:22;97043.03;;;-0.22;73.05
21821;BME280;11073;48.586;12.066;2022-12-20T05:57:03;97030.09;;;-0.17;72.99
21821;BME280;11073;48.586;12.066;2022-12-20T05:59:36;97028.28;;;-0.16;72.96
21821;BME280;11073;48.586;12.066;2022-12-20T06:02:08;97028.53;;;-0.28;72.76
21821;BME280;11073;48.586;12.066;2022-12-20T06:04:40;97011.16;;;-0.40;72.90
21821;BME280;11073;48.586;12.066;2022-12-20T06:07:18;97015.81;;;-0.42;72.94
21821;BME280;11073;48.586;12.066;2022-12-20T06:09:50;96996.44;;;-0.52;73.08
21821;BME280;11073;48.586;12.066;2022-12-20T06:12:23;97013.66;;;-0.38;73.12
21821;BME280;11073;48.586;12.066;2022-12-20T06:14:52;97016.31;;;-0.38;73.17
21821;BME280;11073;48.586;12.066;2022-12-20T06:17:21;97014.38;;;-0.36;73.15
21821;BME280;11073;48.586;12.066;2022-12-20T06:19:52;97027.78;;;-0.38;73.24
21821;BME280;11073;48.586;12.066;2022-12-20T06:22:21;97015.31;;;-0.37;73.26
21821;BME280;11073;48.586;12.066;2022-12-20T06:24:55;97003.34;;;-0.41;73.42
21821;BME280;11073;48.586;12.066;2022-12-20T06:27:27;97007.66;;;-0.40;73.30
21821;BME280;11073;48.586;12.066;2022-12-20T06:30:06;97002.13;;;-0.47;73.40
21821;BME280;11073;48.586;12.066;2022-12-20T06:32:51;96999.03;;;-0.42;73.57
21821;BME280;11073;48.586;12.066;2022-12-20T06:35:21;97009.38;;;-0.31;73.57
21821;BME280;11073;48.586;12.066;2022-12-20T06:37:54;97010.06;;;-0.29;73.64
21821;BME280;11073;48.586;12.066;2022-12-20T06:40:23;97029.44;;;-0.19;73.53
21821;BME280;11073;48.586;12.066;2022-12-20T06:42:52;97044.06;;;-0.15;73.59
21821;BME280;11073;48.586;12.066;2022-12-20T06:45:23;97049.78;;;-0.10;73.42
21821;BME280;11073;48.586;12.066;2022-12-20T06:47:53;97051.97;;;-0.05;73.51
21821;BME280;11073;48.586;12.066;2022-12-20T06:50:24;97065.50;;;0.02;73.38
21821;BME280;11073;48.586;12.066;2022-12-20T06:52:53;97052.69;;;0.05;73.22
21821;BME280;11073;48.586;12.066;2022-12-20T06:55:24;97040.03;;;0.07;73.38
21821;BME280;11073;48.586;12.066;2022-12-20T06:57:52;97039.53;;;0.04;73.18
21821;BME280;11073;48.586;12.066;2022-12-20T07:00:22;97033.00;;;-0.02;73.13
21821;BME280;11073;48.586;12.066;2022-12-20T07:02:50;97030.00;;;-0.07;73.11
21821;BME280;11073;48.586;12.066;2022-12-20T07:05:19;97040.31;;;-0.04;73.07
21821;BME280;11073;48.586;12.066;2022-12-20T07:07:49;97025.41;;;-0.23;73.26
21821;BME280;11073;48.586;12.066;2022-12-20T07:10:17;97039.06;;;-0.18;73.25
21821;BME280;11073;48.586;12.066;2022-12-20T07:12:46;97043.41;;;-0.17;73.40
21821;BME280;11073;48.586;12.066;2022-12-20T07:15:15;97032.47;;;-0.14;73.53
21821;BME280;11073;48.586;12.066;2022-12-20T07:17:44;97027.34;;;-0.07;73.51
21821;BME280;11073;48.586;12.066;2022-12-20T07:20:13;97026.47;;;-0.08;73.58
21821;BME280;11073;48.586;12.066;2022-12-20T07:22:43;97028.28;;;-0.16;73.61
21821;BME280;11073;48.586;12.066;2022-12-20T07:25:13;97022.47;;;-0.12;73.73
21821;BME280;11073;48.586;12.066;2022-12-20T07:27:42;97037.50;;;-0.03;73.72
21821;BME280;11073;48.586;12.066;2022-12-20T07:30:13;97016.38;;;-0.04;73.64
21821;BME280;11073;48.586;12.066;2022-12-20T07:32:42;97022.91;;;0.02;73.70
21821;BME280;11073;48.586;12.066;2022-12-20T07:35:11;97020.91;;;0.04;73.64
21821;BME280;11073;48.586;12.066;2022-12-20T07:37:41;97018.88;;;-0.03;73.44
21821;BME280;11073;48.586;12.066;2022-12-20T07:40:11;97018.19;;;-0.05;73.66
21821;BME280;11073;48.586;12.066;2022-12-20T07:42:42;97013.66;;;-0.12;73.60
21821;BME280;11073;48.586;12.066;2022-12-20T07:45:15;97019.00;;;-0.12;73.77
21821;BME280;11073;48.586;12.066;2022-12-20T07:47:44;97003.69;;;-0.10;73.81
21821;BME280;11073;48.586;12.066;2022-12-20T07:50:12;97021.56;;;0.06;73.91
21821;BME280;11073;48.586;12.066;2022-12-20T07:52:42;97014.59;;;0.13;73.84
21821;BME280;11073;48.586;12.066;2022-12-20T07:55:13;97012.78;;;0.13;73.72
21821;BME280;11073;48.586;12.066;2022-12-20T07:57:46;97021.13;;;0.18;73.79
21821;BME280;11073;48.586;12.066;2022-12-20T08:00:16;97020.34;;;0.26;73.69
21821;BME280;11073;48.586;12.066;2022-12-20T08:02:47;97017.69;;;0.34;73.52
21821;BME280;11073;48.586;12.066;2022-12-20T08:05:18;97022.56;;;0.39;73.55
21821;BME280;11073;48.586;12.066;2022-12-20T08:07:47;97028.53;;;0.41;73.26
21821;BME280;11073;48.586;12.066;2022-12-20T08:10:26;97022.59;;;0.47;73.32
21821;BME280;11073;48.586;12.066;2022-12-20T08:12:56;97024.91;;;0.50;73.36
21821;BME280;11073;48.586;12.066;2022-12-20T08:15:27;97015.44;;;0.55;73.27
21821;BME280;11073;48.586;12.066;2022-12-20T08:17:56;97024.63;;;0.61;73.26
21821;BME280;11073;48.586;12.066;2022-12-20T08:20:25;97013.13;;;0.61;73.12
21821;BME280;11073;48.586;12.066;2022-12-20T08:22:53;97018.63;;;0.59;73.06
21821;BME280;11073;48.586;12.066;2022-12-20T08:25:22;97008.44;;;0.54;73.09
21821;BME280;11073;48.586;12.066;2022-12-20T08:27:51;97032.81;;;0.68;73.06
21821;BME280;11073;48.586;12.066;2022-12-20T08:30:21;97006.47;;;0.65;72.83
21821;BME280;11073;48.586;12.066;2022-12-20T08:32:50;97018.50;;;0.77;72.87
21821;BME280;11073;48.586;12.066;2022-12-20T08:35:19;97013.81;;;0.79;72.46
21821;BME280;11073;48.586;12.066;2022-12-20T08:37:50;97020.50;;;0.83;72.38
21821;BME280;11073;48.586;12.066;2022-12-20T08:40:19;97018.03;;;0.81;72.40
21821;BME280;11073;48.586;12.066;2022-12-20T08:42:47;97017.84;;;0.83;72.36
21821;BME280;11073;48.586;12.066;2022-12-20T08:45:16;96999.84;;;0.77;72.19
21821;BME280;11073;48.586;12.066;2022-12-20T08:47:47;97009.38;;;0.88;72.23
21821;BME280;11073;48.586;12.066;2022-12-20T08:50:16;97004.03;;;0.88;72.18
21821;BME280;11073;48.586;12.066;2022-12-20T08:52:45;96993.38;;;0.88;72.08
21821;BME280;11073;48.586;12.066;2022-12-20T08:55:14;96995.53;;;0.92;72.20
21821;BME280;11073;48.586;12.066;2022-12-20T08:57:43;96996.88;;;0.96;72.19
21821;BME280;11073;48.586;12.066;2022-12-20T09:00:13;97007.84;;;1.01;72.01
21821;BME280;11073;48.586;12.066;2022-12-20T09:02:42;97019.53;;;1.00;71.77
21821;BME280;11073;48.586;12.066;2022-12-20T09:05:12;97013.88;;;1.03;71.92
21821;BME280;11073;48.586;12.066;2022-12-20T09:07:41;97011.03;;;0.97;71.75
21821;BME280;11073;48.586;12.066;2022-12-20T09:10:10;97018.88;;;0.90;71.71
21821;BME280;11073;48.586;12.066;2022-12-20T09:12:39;97018.88;;;0.90;71.85
21821;BME280;11073;48.586;12.066;2022-12-20T09:15:09;97017.69;;;0.85;71.77
21821;BME280;11073;48.586;12.066;2022-12-20T09:17:38;97020.16;;;0.86;71.82
21821;BME280;11073;48.586;12.066;2022-12-20T09:20:07;97024.84;;;0.84;71.87
21821;BME280;11073;48.586;12.066;2022-12-20T09:22:37;97023.53;;;0.88;71.88
21821;BME280;11073;48.586;12.066;2022-12-20T09:25:07;97019.19;;;0.87;72.05
21821;BME280;11073;48.586;12.066;2022-12-20T09:27:35;97014.84;;;0.86;71.95
21821;BME280;11073;48.586;12.066;2022-12-20T09:30:05;97024.53;;;0.95;71.97
21821;BME280;11073;48.586;12.066;2022-12-20T09:32:34;97001.88;;;0.91;71.65
21821;BME280;11073;48.586;12.066;2022-12-20T09:35:02;97002.38;;;1.03;71.87
21821;BME280;11073;48.586;12.066;2022-12-20T09:37:31;97005.22;;;1.09;71.85
21821;BME280;11073;48.586;12.066;2022-12-20T09:40:01;96992.88;;;1.08;71.62
21821;BME280;11073;48.586;12.066;2022-12-20T09:42:30;97001.56;;;1.19;71.74
21821;BME280;11073;48.586;12.066;2022-12-20T09:45:02;96994.38;;;1.27;71.86
21821;BME280;11073;48.586;12.066;2022-12-20T09:47:34;96995.56;;;1.41;71.59
21821;BME280;11073;48.586;12.066;2022-12-20T09:50:05;96983.53;;;1.53;71.67
21821;BME280;11073;48.586;12.066;2022-12-20T09:52:52;96977.53;;;1.59;71.43
21821;BME280;11073;48.586;12.066;2022-12-20T09:55:30;96966.00;;;1.59;71.22
21821;BME280;11073;48.586;12.066;2022-12-20T09:58:17;96953.16;;;1.62;71.28
21821;BME280;11073;48.586;12.066;2022-12-20T10:00:49;96947.16;;;1.60;71.17
21821;BME280;11073;48.586;12.066;2022-12-20T10:03:24;96940.97;;;1.68;71.09
21821;BME280;11073;48.586;12.066;2022-12-20T10:05:54;96937.13;;;1.71;71.15
21821;BME280;11073;48.586;12.066;2022-12-20T10:08:48;96936.25;;;1.78;70.96
21821;BME280;11073;48.586;12.066;2022-12-20T10:11:32;96934.78;;;1.76;70.96
21821;BME280;11073;48.586;12.066;2022-12-20T10:14:34;96952.25;;;1.86;70.90
21821;BME280;11073;48.586;12.066;2022-12-20T10:17:11;96955.59;;;1.88;70.80
21821;BME280;11073;48.586;12.066;2022-12-20T10:19:55;96960.72;;;1.98;70.75
21821;BME280;11073;48.586;12.066;2022-12-20T10:22:30;96953.06;;;2.03;70.66
21821;BME280;11073;48.586;12.066;2022-12-20T10:25:15;96948.53;;;2.04;70.54
21821;BME280;11073;48.586;12.066;2022-12-20T10:27:46;96959.69;;;2.07;70.48
21821;BME280;11073;48.586;12.066;2022-12-20T10:30:18;96946.53;;;2.06;70.60
21821;BME280;11073;48.586;12.066;2022-12-20T10:32:50;96948.78;;;2.17;70.45
21821;BME280;11073;48.586;12.066;2022-12-20T10:35:22;96939.75;;;2.26;70.53
21821;BME280;11073;48.586;12.066;2022-12-20T10:38:00;96935.66;;;2.38;70.47
21821;BME280;11073;48.586;12.066;2022-12-20T10:40:36;96929.63;;;2.44;69.94
21821;BME280;11073;48.586;12.066;2022-12-20T10:43:27;96924.22;;;2.53;69.88
21821;BME280;11073;48.586;12.066;2022-12-20T10:45:59;96909.31;;;2.58;69.89
21821;BME280;11073;48.586;12.066;2022-12-20T10:48:31;96904.16;;;2.57;69.76
21821;BME280;11073;48.586;12.066;2022-12-20T10:51:03;96917.66;;;2.63;69.80
21821;BME280;11073;48.586;12.066;2022-12-20T10:53:49;96913.66;;;2.59;69.62
21821;BME280;11073;48.586;12.066;2022-12-20T10:56:20;96908.69;;;2.56;69.59
21821;BME280;11073;48.586;12.066;2022-12-20T10:58:56;96892.97;;;2.53;69.54
21821;BME280;11073;48.586;12.066;2022-12-20T11:01:28;96893.16;;;2.52;69.53
21821;BME280;11073;48.586;12.066;2022-12-20T11:04:00;96891.16;;;2.54;69.61
21821;BME280;11073;48.586;12.066;2022-12-20T11:06:40;96890.16;;;2.55;69.47
21821;BME280;11073;48.586;12.066;2022-12-20T11:09:24;96874.94;;;2.55;69.54
21821;BME280;11073;48.586;12.066;2022-12-20T11:12:04;96867.81;;;2.47;69.53
21821;BME280;11073;48.586;12.066;2022-12-20T11:14:36;96831.63;;;2.37;69.43
21821;BME280;11073;48.586;12.066;2022-12-20T11:17:18;96831.63;;;2.37;69.63
21821;BME280;11073;48.586;12.066;2022-12-20T11:19:58;96847.59;;;2.45;69.75
21821;BME280;11073;48.586;12.066;2022-12-20T11:22:37;96850.47;;;2.43;69.67
21821;BME280;11073;48.586;12.066;2022-12-20T11:28:13;96859.44;;;2.51;69.82
21821;BME280;11073;48.586;12.066;2022-12-20T11:30:54;96855.78;;;2.66;69.87
21821;BME280;11073;48.586;12.066;2022-12-20T11:33:51;96837.97;;;2.82;69.90
21821;BME280;11073;48.586;12.066;2022-12-20T11:36:34;96840.63;;;2.82;69.73
21821;BME280;11073;48.586;12.066;2022-12-20T11:39:12;96832.59;;;2.82;69.74
21821;BME280;11073;48.586;12.066;2022-12-20T11:41:49;96830.59;;;2.84;69.67
21821;BME280;11073;48.586;12.066;2022-12-20T11:44:30;96824.53;;;2.90;69.60
21821;BME280;11073;48.586;12.066;2022-12-20T11:47:23;96817.81;;;2.94;69.59
21821;BME280;11073;48.586;12.066;2022-12-20T11:50:03;96810.34;;;3.04;69.70
21821;BME280;11073;48.586;12.066;2022-12-20T11:52:44;96801.84;;;3.00;69.59
21821;BME280;11073;48.586;12.066;2022-12-20T11:55:18;96806.47;;;3.07;69.53
21821;BME280;11073;48.586;12.066;2022-12-20T11:57:55;96816.56;;;3.19;69.58
21821;BME280;11073;48.586;12.066;2022-12-20T12:00:51;96804.66;;;3.22;69.37
21821;BME280;11073;48.586;12.066;2022-12-20T12:03:27;96798.38;;;3.15;69.31
21821;BME280;11073;48.586;12.066;2022-12-20T12:05:59;96790.78;;;3.18;69.25
21821;BME280;11073;48.586;12.066;2022-12-20T12:08:37;96777.78;;;3.15;69.30
21821;BME280;11073;48.586;12.066;2022-12-20T12:11:12;96776.22;;;3.06;69.35
21821;BME280;11073;48.586;12.066;2022-12-20T12:14:04;96765.44;;;2.99;69.41
21821;BME280;11073;48.586;12.066;2022-12-20T12:16:36;96767.91;;;3.01;69.55
21821;BME280;11073;48.586;12.066;2022-12-20T12:19:10;96774.47;;;2.98;69.43
21821;BME280;11073;48.586;12.066;2022-12-20T12:21:43;96771.59;;;3.00;69.51
21821;BME280;11073;48.586;12.066;2022-12-20T12:24:19;96768.94;;;3.00;69.40
21821;BME280;11073;48.586;12.066;2022-12-20T12:26:52;96720.19;;;2.75;69.41
21821;BME280;11073;48.586;12.066;2022-12-20T12:29:21;96758.50;;;2.90;69.50
21821;BME280;11073;48.586;12.066;2022-12-20T12:31:53;96770.66;;;2.93;69.51
21821;BME280;11073;48.586;12.066;2022-12-20T12:34:45;96732.09;;;2.72;69.48
21821;BME280;11073;48.586;12.066;2022-12-20T12:40:53;96758.50;;;2.90;69.56
21821;BME280;11073;48.586;12.066;2022-12-20T12:43:44;96757.19;;;2.86;69.64
21821;BME280;11073;48.586;12.066;2022-12-20T12:46:17;96757.69;;;2.90;69.68
21821;BME280;11073;48.586;12.066;2022-12-20T12:48:52;96744.94;;;2.92;69.67
21821;BME280;11073;48.586;12.066;2022-12-20T12:51:28;96742.47;;;2.90;69.68
21821;BME280;11073;48.586;12.066;2022-12-20T12:54:11;96768.81;;;2.93;69.56
21821;BME280;11073;48.586;12.066;2022-12-20T12:56:43;96759.97;;;2.93;69.67
21821;BME280;11073;48.586;12.066;2022-12-20T12:59:23;96774.28;;;3.00;69.83
21821;BME280;11073;48.586;12.066;2022-12-20T13:01:53;96761.53;;;3.02;69.91
21821;BME280;11073;48.586;12.066;2022-12-20T13:04:26;96754.72;;;2.99;69.84
21821;BME280;11073;48.586;12.066;2022-12-20T13:06:59;96753.72;;;3.00;69.74
21821;BME280;11073;48.586;12.066;2022-12-20T13:09:50;96757.31;;;2.93;69.79
21821;BME280;11073;48.586;12.066;2022-12-20T13:12:55;96749.19;;;2.86;69.73
21821;BME280;11073;48.586;12.066;2022-12-20T13:15:50;96752.22;;;2.83;69.78
21821;BME280;11073;48.586;12.066;2022-12-20T13:18:26;96760.06;;;2.85;70.05
21821;BME280;11073;48.586;12.066;2022-12-20T13:21:31;96758.28;;;2.77;69.98
21821;BME280;11073;48.586;12.066;2022-12-20T13:24:38;96765.94;;;2.80;70.09
21821;BME280;11073;48.586;12.066;2022-12-20T13:27:17;96755.81;;;2.75;70.03
21821;BME280;11073;48.586;12.066;2022-12-20T13:29:58;96775.47;;;2.83;70.12
21821;BME280;11073;48.586;12.066;2022-12-20T13:38:58;96760.88;;;2.85;70.23
21821;BME280;11073;48.586;12.066;2022-12-20T13:41:32;96746.88;;;2.83;70.25
21821;BME280;11073;48.586;12.066;2022-12-20T13:44:15;96740.31;;;2.86;70.19
21821;BME280;11073;48.586;12.066;2022-12-20T13:46:49;96728.69;;;2.79;70.25